sensor_id;sensor_type;location;lat;lon;timestamp;P1;durP1;ratioP1;P2;durP2;ratioP2
24279;SDS011;12395;42.808;23.408;2023-04-06T00:00:32;19.50;;;11.67;;
24279;SDS011;12395;42.808;23.408;2023-04-06T00:02:57;17.97;;;11.00;;
24279;SDS011;12395;42.808;23.408;2023-04-06T00:05:23;18.77;;;11.23;;
24279;SDS011;12395;42.808;23.408;2023-04-06T00:07:49;17.43;;;10.57;;
24279;SDS011;12395;42.808;23.408;2023-04-06T00:10:15;19.10;;;10.57;;
24279;SDS011;12395;42.808;23.408;2023-04-06T00:12:41;17.13;;;10.43;;
24279;SDS011;12395;42.808;23.408;2023-04-06T00:15:06;18.33;;;11.40;;
24279;SDS011;12395;42.808;23.408;2023-04-06T00:17:32;16.93;;;10.40;;
24279;SDS011;12395;42.808;23.408;2023-04-06T00:19:57;18.07;;;10.50;;
24279;SDS011;12395;42.808;23.408;2023-04-06T00:22:23;18.50;;;10.27;;
24279;SDS011;12395;42.808;23.408;2023-04-06T00:24:48;17.57;;;10.53;;
24279;SDS011;12395;42.808;23.408;2023-04-06T00:27:14;20.27;;;11.47;;
24279;SDS011;12395;42.808;23.408;2023-04-06T00:29:40;20.73;;;11.93;;
24279;SDS011;12395;42.808;23.408;2023-04-06T00:32:05;20.30;;;11.17;;
24279;SDS011;12395;42.808;23.408;2023-04-06T00:34:31;18.80;;;11.13;;
24279;SDS011;12395;42.808;23.408;2023-04-06T00:36:56;18.37;;;10.83;;
24279;SDS011;12395;42.808;23.408;2023-04-06T00:39:22;21.73;;;12.00;;
24279;SDS011;12395;42.808;23.408;2023-04-06T00:41:49;19.60;;;11.60;;
24279;SDS011;12395;42.808;23.408;2023-04-06T00:44:16;19.57;;;12.13;;
24279;SDS011;12395;42.808;23.408;2023-04-06T00:46:42;19.40;;;11.53;;
24279;SDS011;12395;42.808;23.408;2023-04-06T00:49:07;19.73;;;11.57;;
24279;SDS011;12395;42.808;23.408;2023-04-06T00:51:33;19.50;;;11.63;;
24279;SDS011;12395;42.808;23.408;2023-04-06T00:53:58;18.73;;;12.07;;
24279;SDS011;12395;42.808;23.408;2023-04-06T00:56:24;20.77;;;12.40;;
24279;SDS011;12395;42.808;23.408;2023-04-06T00:58:51;21.00;;;11.88;;
24279;SDS011;12395;42.808;23.408;2023-04-06T01:01:17;20.00;;;11.53;;
24279;SDS011;12395;42.808;23.408;2023-04-06T01:03:42;18.90;;;12.30;;
24279;SDS011;12395;42.808;23.408;2023-04-06T01:06:09;20.77;;;12.37;;
24279;SDS011;12395;42.808;23.408;2023-04-06T01:08:35;20.00;;;12.40;;
24279;SDS011;12395;42.808;23.408;2023-04-06T01:11:01;20.83;;;13.17;;
24279;SDS011;12395;42.808;23.408;2023-04-06T01:13:27;21.27;;;12.47;;
24279;SDS011;12395;42.808;23.408;2023-04-06T01:15:53;19.03;;;11.27;;
24279;SDS011;12395;42.808;23.408;2023-04-06T01:18:18;19.40;;;11.33;;
24279;SDS011;12395;42.808;23.408;2023-04-06T01:20:50;20.43;;;13.17;;
24279;SDS011;12395;42.808;23.408;2023-04-06T01:23:16;21.17;;;12.13;;
24279;SDS011;12395;42.808;23.408;2023-04-06T01:25:41;20.47;;;12.07;;
24279;SDS011;12395;42.808;23.408;2023-04-06T01:28:06;18.53;;;11.60;;
24279;SDS011;12395;42.808;23.408;2023-04-06T01:30:32;19.83;;;12.27;;
24279;SDS011;12395;42.808;23.408;2023-04-06T01:32:57;21.27;;;12.53;;
24279;SDS011;12395;42.808;23.408;2023-04-06T01:35:22;19.33;;;12.60;;
24279;SDS011;12395;42.808;23.408;2023-04-06T01:37:48;21.30;;;13.80;;
24279;SDS011;12395;42.808;23.408;2023-04-06T01:40:13;20.47;;;12.40;;
24279;SDS011;12395;42.808;23.408;2023-04-06T01:42:39;21.23;;;12.73;;
24279;SDS011;12395;42.808;23.408;2023-04-06T01:45:05;20.77;;;13.70;;
24279;SDS011;12395;42.808;23.408;2023-04-06T01:47:30;21.17;;;13.40;;
24279;SDS011;12395;42.808;23.408;2023-04-06T01:49:56;22.77;;;13.03;;
24279;SDS011;12395;42.808;23.408;2023-04-06T01:52:21;22.43;;;13.83;;
24279;SDS011;12395;42.808;23.408;2023-04-06T01:54:47;21.60;;;13.47;;
24279;SDS011;12395;42.808;23.408;2023-04-06T01:57:12;21.80;;;13.60;;
24279;SDS011;12395;42.808;23.408;2023-04-06T01:59:37;23.47;;;13.33;;
24279;SDS011;12395;42.808;23.408;2023-04-06T02:02:03;23.17;;;13.80;;
24279;SDS011;12395;42.808;23.408;2023-04-06T02:04:28;23.87;;;13.60;;
24279;SDS011;12395;42.808;23.408;2023-04-06T02:06:53;21.43;;;12.70;;
24279;SDS011;12395;42.808;23.408;2023-04-06T02:09:19;20.83;;;12.07;;
24279;SDS011;12395;42.808;23.408;2023-04-06T02:11:45;23.60;;;14.00;;
24279;SDS011;12395;42.808;23.408;2023-04-06T02:14:10;20.43;;;11.53;;
24279;SDS011;12395;42.808;23.408;2023-04-06T02:16:36;22.47;;;12.70;;
24279;SDS011;12395;42.808;23.408;2023-04-06T02:19:01;21.70;;;12.30;;
24279;SDS011;12395;42.808;23.408;2023-04-06T02:21:26;23.43;;;12.80;;
24279;SDS011;12395;42.808;23.408;2023-04-06T02:23:52;22.60;;;13.60;;
24279;SDS011;12395;42.808;23.408;2023-04-06T02:26:17;23.47;;;13.00;;
24279;SDS011;12395;42.808;23.408;2023-04-06T02:28:43;22.67;;;12.93;;
24279;SDS011;12395;42.808;23.408;2023-04-06T02:31:08;21.63;;;13.03;;
24279;SDS011;12395;42.808;23.408;2023-04-06T02:33:34;24.10;;;12.67;;
24279;SDS011;12395;42.808;23.408;2023-04-06T02:35:59;23.90;;;13.00;;
24279;SDS011;12395;42.808;23.408;2023-04-06T02:38:24;22.03;;;12.10;;
24279;SDS011;12395;42.808;23.408;2023-04-06T02:40:50;23.00;;;12.77;;
24279;SDS011;12395;42.808;23.408;2023-04-06T02:43:15;22.43;;;13.40;;
24279;SDS011;12395;42.808;23.408;2023-04-06T02:45:42;22.60;;;12.97;;
24279;SDS011;12395;42.808;23.408;2023-04-06T02:48:07;23.93;;;12.80;;
24279;SDS011;12395;42.808;23.408;2023-04-06T02:50:32;22.40;;;12.33;;
24279;SDS011;12395;42.808;23.408;2023-04-06T02:52:58;22.40;;;12.63;;
24279;SDS011;12395;42.808;23.408;2023-04-06T02:55:23;25.73;;;12.73;;
24279;SDS011;12395;42.808;23.408;2023-04-06T02:57:48;22.13;;;12.33;;
24279;SDS011;12395;42.808;23.408;2023-04-06T03:00:14;22.47;;;13.50;;
24279;SDS011;12395;42.808;23.408;2023-04-06T03:02:40;23.67;;;12.73;;
24279;SDS011;12395;42.808;23.408;2023-04-06T03:05:05;28.07;;;14.50;;
24279;SDS011;12395;42.808;23.408;2023-04-06T03:07:31;23.43;;;13.23;;
24279;SDS011;12395;42.808;23.408;2023-04-06T03:09:57;24.47;;;14.43;;
24279;SDS011;12395;42.808;23.408;2023-04-06T03:12:22;23.20;;;14.33;;
24279;SDS011;12395;42.808;23.408;2023-04-06T03:14:47;57.33;;;30.30;;
24279;SDS011;12395;42.808;23.408;2023-04-06T03:17:13;30.07;;;17.80;;
24279;SDS011;12395;42.808;23.408;2023-04-06T03:19:38;51.27;;;30.03;;
24279;SDS011;12395;42.808;23.408;2023-04-06T03:22:03;26.23;;;14.87;;
24279;SDS011;12395;42.808;23.408;2023-04-06T03:24:29;27.10;;;16.00;;
24279;SDS011;12395;42.808;23.408;2023-04-06T03:26:54;25.03;;;13.13;;
24279;SDS011;12395;42.808;23.408;2023-04-06T03:29:20;21.80;;;12.17;;
24279;SDS011;12395;42.808;23.408;2023-04-06T03:31:45;24.33;;;13.07;;
24279;SDS011;12395;42.808;23.408;2023-04-06T03:34:10;24.40;;;13.80;;
24279;SDS011;12395;42.808;23.408;2023-04-06T03:36:36;22.57;;;13.50;;
24279;SDS011;12395;42.808;23.408;2023-04-06T03:39:01;26.47;;;13.50;;
24279;SDS011;12395;42.808;23.408;2023-04-06T03:41:27;22.77;;;14.20;;
24279;SDS011;12395;42.808;23.408;2023-04-06T03:43:52;24.53;;;13.93;;
24279;SDS011;12395;42.808;23.408;2023-04-06T03:46:18;24.80;;;13.67;;
24279;SDS011;12395;42.808;23.408;2023-04-06T03:48:43;26.17;;;14.47;;
24279;SDS011;12395;42.808;23.408;2023-04-06T03:51:10;26.92;;;15.30;;
24279;SDS011;12395;42.808;23.408;2023-04-06T03:53:36;24.60;;;14.17;;
24279;SDS011;12395;42.808;23.408;2023-04-06T03:56:02;25.73;;;14.20;;
24279;SDS011;12395;42.808;23.408;2023-04-06T03:58:27;24.43;;;13.93;;
24279;SDS011;12395;42.808;23.408;2023-04-06T04:00:53;25.77;;;14.57;;
24279;SDS011;12395;42.808;23.408;2023-04-06T04:03:18;25.67;;;14.97;;
24279;SDS011;12395;42.808;23.408;2023-04-06T04:05:44;22.40;;;12.13;;
24279;SDS011;12395;42.808;23.408;2023-04-06T04:08:09;23.43;;;12.83;;
24279;SDS011;12395;42.808;23.408;2023-04-06T04:10:35;26.37;;;14.30;;
24279;SDS011;12395;42.808;23.408;2023-04-06T04:13:00;25.33;;;13.33;;
24279;SDS011;12395;42.808;23.408;2023-04-06T04:15:26;26.83;;;14.00;;
24279;SDS011;12395;42.808;23.408;2023-04-06T04:17:51;25.73;;;14.53;;
24279;SDS011;12395;42.808;23.408;2023-04-06T04:20:17;27.80;;;14.97;;
24279;SDS011;12395;42.808;23.408;2023-04-06T04:22:42;28.17;;;13.83;;
24279;SDS011;12395;42.808;23.408;2023-04-06T04:25:08;26.90;;;14.60;;
24279;SDS011;12395;42.808;23.408;2023-04-06T04:27:34;24.87;;;13.67;;
24279;SDS011;12395;42.808;23.408;2023-04-06T04:30:00;29.87;;;14.80;;
24279;SDS011;12395;42.808;23.408;2023-04-06T04:32:25;27.47;;;13.40;;
24279;SDS011;12395;42.808;23.408;2023-04-06T04:34:52;25.25;;;14.10;;
24279;SDS011;12395;42.808;23.408;2023-04-06T04:37:18;27.87;;;14.87;;
24279;SDS011;12395;42.808;23.408;2023-04-06T04:39:44;26.30;;;14.43;;
24279;SDS011;12395;42.808;23.408;2023-04-06T04:42:10;29.90;;;16.37;;
24279;SDS011;12395;42.808;23.408;2023-04-06T04:44:35;24.33;;;13.83;;
24279;SDS011;12395;42.808;23.408;2023-04-06T04:47:01;26.40;;;13.63;;
24279;SDS011;12395;42.808;23.408;2023-04-06T04:49:26;25.67;;;15.27;;
24279;SDS011;12395;42.808;23.408;2023-04-06T04:51:52;23.40;;;13.30;;
24279;SDS011;12395;42.808;23.408;2023-04-06T04:54:17;22.13;;;13.07;;
24279;SDS011;12395;42.808;23.408;2023-04-06T04:56:44;26.10;;;14.20;;
24279;SDS011;12395;42.808;23.408;2023-04-06T04:59:10;22.13;;;12.23;;
24279;SDS011;12395;42.808;23.408;2023-04-06T05:01:35;23.60;;;13.97;;
24279;SDS011;12395;42.808;23.408;2023-04-06T05:04:00;22.20;;;12.80;;
24279;SDS011;12395;42.808;23.408;2023-04-06T05:06:28;24.70;;;13.67;;
24279;SDS011;12395;42.808;23.408;2023-04-06T05:08:54;22.10;;;12.30;;
24279;SDS011;12395;42.808;23.408;2023-04-06T05:11:20;25.23;;;14.10;;
24279;SDS011;12395;42.808;23.408;2023-04-06T05:13:46;25.40;;;14.30;;
24279;SDS011;12395;42.808;23.408;2023-04-06T05:16:11;26.47;;;14.17;;
24279;SDS011;12395;42.808;23.408;2023-04-06T05:18:37;26.67;;;13.97;;
24279;SDS011;12395;42.808;23.408;2023-04-06T05:21:02;24.07;;;13.37;;
24279;SDS011;12395;42.808;23.408;2023-04-06T05:23:28;25.73;;;13.90;;
24279;SDS011;12395;42.808;23.408;2023-04-06T05:25:53;22.17;;;12.43;;
24279;SDS011;12395;42.808;23.408;2023-04-06T05:28:19;26.60;;;13.17;;
24279;SDS011;12395;42.808;23.408;2023-04-06T05:30:44;26.27;;;13.37;;
24279;SDS011;12395;42.808;23.408;2023-04-06T05:33:11;24.60;;;13.73;;
24279;SDS011;12395;42.808;23.408;2023-04-06T05:35:36;24.70;;;13.63;;
24279;SDS011;12395;42.808;23.408;2023-04-06T05:38:02;27.13;;;14.50;;
24279;SDS011;12395;42.808;23.408;2023-04-06T05:40:27;21.43;;;12.60;;
24279;SDS011;12395;42.808;23.408;2023-04-06T05:42:53;23.63;;;12.93;;
24279;SDS011;12395;42.808;23.408;2023-04-06T05:45:19;25.57;;;13.37;;
24279;SDS011;12395;42.808;23.408;2023-04-06T05:47:46;23.95;;;12.95;;
24279;SDS011;12395;42.808;23.408;2023-04-06T05:50:11;24.13;;;12.57;;
24279;SDS011;12395;42.808;23.408;2023-04-06T05:52:40;22.80;;;12.83;;
24279;SDS011;12395;42.808;23.408;2023-04-06T05:55:08;23.93;;;13.70;;
24279;SDS011;12395;42.808;23.408;2023-04-06T05:57:34;22.33;;;12.87;;
24279;SDS011;12395;42.808;23.408;2023-04-06T05:59:59;23.80;;;13.13;;
24279;SDS011;12395;42.808;23.408;2023-04-06T06:02:25;22.43;;;12.53;;
24279;SDS011;12395;42.808;23.408;2023-04-06T06:04:51;24.27;;;12.70;;
24279;SDS011;12395;42.808;23.408;2023-04-06T06:07:16;22.60;;;11.70;;
24279;SDS011;12395;42.808;23.408;2023-04-06T06:09:42;21.40;;;11.87;;
24279;SDS011;12395;42.808;23.408;2023-04-06T06:12:07;22.73;;;11.87;;
24279;SDS011;12395;42.808;23.408;2023-04-06T06:14:33;21.33;;;11.17;;
24279;SDS011;12395;42.808;23.408;2023-04-06T06:16:59;23.10;;;12.00;;
24279;SDS011;12395;42.808;23.408;2023-04-06T06:19:24;22.30;;;11.80;;
24279;SDS011;12395;42.808;23.408;2023-04-06T06:21:50;26.27;;;12.40;;
24279;SDS011;12395;42.808;23.408;2023-04-06T06:24:15;24.17;;;12.33;;
24279;SDS011;12395;42.808;23.408;2023-04-06T06:26:41;23.37;;;12.23;;
24279;SDS011;12395;42.808;23.408;2023-04-06T06:29:06;21.80;;;11.80;;
24279;SDS011;12395;42.808;23.408;2023-04-06T06:31:32;19.87;;;10.60;;
24279;SDS011;12395;42.808;23.408;2023-04-06T06:33:57;22.57;;;11.40;;
24279;SDS011;12395;42.808;23.408;2023-04-06T06:36:23;21.87;;;11.87;;
24279;SDS011;12395;42.808;23.408;2023-04-06T06:38:48;24.97;;;12.87;;
24279;SDS011;12395;42.808;23.408;2023-04-06T06:41:13;23.10;;;12.03;;
24279;SDS011;12395;42.808;23.408;2023-04-06T06:43:39;21.37;;;11.97;;
24279;SDS011;12395;42.808;23.408;2023-04-06T06:46:04;22.47;;;13.13;;
24279;SDS011;12395;42.808;23.408;2023-04-06T06:48:30;24.20;;;12.13;;
24279;SDS011;12395;42.808;23.408;2023-04-06T06:50:56;23.87;;;12.10;;
24279;SDS011;12395;42.808;23.408;2023-04-06T06:53:22;25.93;;;12.87;;
24279;SDS011;12395;42.808;23.408;2023-04-06T06:55:48;22.27;;;12.17;;
24279;SDS011;12395;42.808;23.408;2023-04-06T06:58:17;21.57;;;11.90;;
24279;SDS011;12395;42.808;23.408;2023-04-06T07:00:45;22.90;;;12.10;;
24279;SDS011;12395;42.808;23.408;2023-04-06T07:03:10;21.80;;;12.43;;
24279;SDS011;12395;42.808;23.408;2023-04-06T07:05:36;24.50;;;13.07;;
24279;SDS011;12395;42.808;23.408;2023-04-06T07:08:01;23.63;;;12.70;;
24279;SDS011;12395;42.808;23.408;2023-04-06T07:10:26;25.07;;;12.93;;
24279;SDS011;12395;42.808;23.408;2023-04-06T07:12:52;23.47;;;12.13;;
24279;SDS011;12395;42.808;23.408;2023-04-06T07:15:17;25.20;;;14.07;;
24279;SDS011;12395;42.808;23.408;2023-04-06T07:17:43;23.93;;;12.30;;
24279;SDS011;12395;42.808;23.408;2023-04-06T07:20:11;25.30;;;12.70;;
24279;SDS011;12395;42.808;23.408;2023-04-06T07:22:38;25.13;;;13.70;;
24279;SDS011;12395;42.808;23.408;2023-04-06T07:25:04;27.10;;;14.00;;
24279;SDS011;12395;42.808;23.408;2023-04-06T07:27:30;22.47;;;11.70;;
24279;SDS011;12395;42.808;23.408;2023-04-06T07:29:55;23.13;;;12.23;;
24279;SDS011;12395;42.808;23.408;2023-04-06T07:32:20;25.23;;;13.10;;
24279;SDS011;12395;42.808;23.408;2023-04-06T07:34:46;23.20;;;12.27;;
24279;SDS011;12395;42.808;23.408;2023-04-06T07:37:11;22.10;;;11.80;;
24279;SDS011;12395;42.808;23.408;2023-04-06T07:39:37;23.83;;;11.77;;
24279;SDS011;12395;42.808;23.408;2023-04-06T07:42:03;20.47;;;11.63;;
24279;SDS011;12395;42.808;23.408;2023-04-06T07:44:28;22.13;;;11.97;;
24279;SDS011;12395;42.808;23.408;2023-04-06T07:46:54;22.87;;;11.67;;
24279;SDS011;12395;42.808;23.408;2023-04-06T07:49:19;22.03;;;11.07;;
24279;SDS011;12395;42.808;23.408;2023-04-06T07:51:45;20.43;;;11.57;;
24279;SDS011;12395;42.808;23.408;2023-04-06T07:54:11;19.47;;;10.17;;
24279;SDS011;12395;42.808;23.408;2023-04-06T07:56:36;18.23;;;9.93;;
24279;SDS011;12395;42.808;23.408;2023-04-06T07:59:02;21.90;;;11.70;;
24279;SDS011;12395;42.808;23.408;2023-04-06T08:01:28;19.37;;;11.27;;
24279;SDS011;12395;42.808;23.408;2023-04-06T08:03:54;19.80;;;9.97;;
24279;SDS011;12395;42.808;23.408;2023-04-06T08:06:20;17.87;;;10.03;;
24279;SDS011;12395;42.808;23.408;2023-04-06T08:08:46;18.70;;;9.83;;
24279;SDS011;12395;42.808;23.408;2023-04-06T08:11:11;18.70;;;10.90;;
24279;SDS011;12395;42.808;23.408;2023-04-06T08:13:36;17.10;;;10.30;;
24279;SDS011;12395;42.808;23.408;2023-04-06T08:16:02;16.87;;;9.70;;
24279;SDS011;12395;42.808;23.408;2023-04-06T08:18:27;17.33;;;9.77;;
24279;SDS011;12395;42.808;23.408;2023-04-06T08:20:54;18.25;;;10.23;;
24279;SDS011;12395;42.808;23.408;2023-04-06T08:23:20;20.63;;;10.93;;
24279;SDS011;12395;42.808;23.408;2023-04-06T08:25:46;18.57;;;10.20;;
24279;SDS011;12395;42.808;23.408;2023-04-06T08:28:11;19.60;;;9.93;;
24279;SDS011;12395;42.808;23.408;2023-04-06T08:30:39;17.60;;;10.10;;
24279;SDS011;12395;42.808;23.408;2023-04-06T08:33:05;19.47;;;10.17;;
24279;SDS011;12395;42.808;23.408;2023-04-06T08:35:30;21.20;;;9.70;;
24279;SDS011;12395;42.808;23.408;2023-04-06T08:37:56;16.57;;;9.57;;
24279;SDS011;12395;42.808;23.408;2023-04-06T08:40:22;18.80;;;10.23;;
24279;SDS011;12395;42.808;23.408;2023-04-06T08:42:52;17.77;;;9.97;;
24279;SDS011;12395;42.808;23.408;2023-04-06T08:45:20;16.90;;;9.57;;
24279;SDS011;12395;42.808;23.408;2023-04-06T08:47:47;18.07;;;9.97;;
24279;SDS011;12395;42.808;23.408;2023-04-06T08:50:17;16.73;;;9.50;;
24279;SDS011;12395;42.808;23.408;2023-04-06T08:52:43;16.60;;;9.13;;
24279;SDS011;12395;42.808;23.408;2023-04-06T08:55:11;17.00;;;9.40;;
24279;SDS011;12395;42.808;23.408;2023-04-06T08:57:37;15.80;;;9.77;;
24279;SDS011;12395;42.808;23.408;2023-04-06T09:00:03;16.70;;;9.20;;
24279;SDS011;12395;42.808;23.408;2023-04-06T09:02:29;16.17;;;9.65;;
24279;SDS011;12395;42.808;23.408;2023-04-06T09:04:55;15.23;;;9.40;;
24279;SDS011;12395;42.808;23.408;2023-04-06T09:07:22;16.20;;;9.07;;
24279;SDS011;12395;42.808;23.408;2023-04-06T09:09:48;16.30;;;9.20;;
24279;SDS011;12395;42.808;23.408;2023-04-06T09:12:27;17.93;;;10.27;;
24279;SDS011;12395;42.808;23.408;2023-04-06T09:14:53;17.77;;;9.60;;
24279;SDS011;12395;42.808;23.408;2023-04-06T09:17:21;18.15;;;10.25;;
24279;SDS011;12395;42.808;23.408;2023-04-06T09:19:58;15.80;;;9.00;;
24279;SDS011;12395;42.808;23.408;2023-04-06T09:22:25;18.67;;;10.57;;
24279;SDS011;12395;42.808;23.408;2023-04-06T09:24:59;20.27;;;10.50;;
24279;SDS011;12395;42.808;23.408;2023-04-06T09:27:35;19.07;;;10.37;;
24279;SDS011;12395;42.808;23.408;2023-04-06T09:30:08;20.40;;;11.43;;
24279;SDS011;12395;42.808;23.408;2023-04-06T09:32:45;16.30;;;9.43;;
24279;SDS011;12395;42.808;23.408;2023-04-06T09:35:12;16.17;;;9.93;;
24279;SDS011;12395;42.808;23.408;2023-04-06T09:37:37;18.13;;;10.40;;
24279;SDS011;12395;42.808;23.408;2023-04-06T09:40:03;17.50;;;9.60;;
24279;SDS011;12395;42.808;23.408;2023-04-06T09:42:30;21.27;;;10.45;;
24279;SDS011;12395;42.808;23.408;2023-04-06T09:44:55;16.97;;;9.63;;
24279;SDS011;12395;42.808;23.408;2023-04-06T09:47:21;28.23;;;13.17;;
24279;SDS011;12395;42.808;23.408;2023-04-06T09:49:52;23.03;;;10.97;;
24279;SDS011;12395;42.808;23.408;2023-04-06T09:52:21;22.10;;;12.50;;
24279;SDS011;12395;42.808;23.408;2023-04-06T09:54:51;17.73;;;10.13;;
24279;SDS011;12395;42.808;23.408;2023-04-06T09:57:25;16.50;;;9.17;;
24279;SDS011;12395;42.808;23.408;2023-04-06T10:02:38;17.23;;;10.30;;
24279;SDS011;12395;42.808;23.408;2023-04-06T10:05:22;16.97;;;8.67;;
24279;SDS011;12395;42.808;23.408;2023-04-06T10:07:53;16.77;;;9.90;;
24279;SDS011;12395;42.808;23.408;2023-04-06T10:12:47;14.97;;;8.63;;
24279;SDS011;12395;42.808;23.408;2023-04-06T10:15:12;17.23;;;9.30;;
24279;SDS011;12395;42.808;23.408;2023-04-06T10:17:38;15.43;;;9.17;;
24279;SDS011;12395;42.808;23.408;2023-04-06T10:20:04;18.53;;;9.60;;
24279;SDS011;12395;42.808;23.408;2023-04-06T10:22:44;14.57;;;8.93;;
24279;SDS011;12395;42.808;23.408;2023-04-06T10:25:25;15.33;;;8.23;;
24279;SDS011;12395;42.808;23.408;2023-04-06T10:27:58;13.40;;;8.33;;
24279;SDS011;12395;42.808;23.408;2023-04-06T10:30:24;14.33;;;8.03;;
24279;SDS011;12395;42.808;23.408;2023-04-06T10:32:50;14.07;;;8.30;;
24279;SDS011;12395;42.808;23.408;2023-04-06T10:35:15;14.47;;;8.27;;
24279;SDS011;12395;42.808;23.408;2023-04-06T10:37:49;14.88;;;8.00;;
24279;SDS011;12395;42.808;23.408;2023-04-06T10:40:22;15.77;;;8.88;;
24279;SDS011;12395;42.808;23.408;2023-04-06T10:42:50;13.83;;;8.47;;
24279;SDS011;12395;42.808;23.408;2023-04-06T10:45:20;14.90;;;8.13;;
24279;SDS011;12395;42.808;23.408;2023-04-06T10:47:46;14.65;;;8.35;;
24279;SDS011;12395;42.808;23.408;2023-04-06T10:50:13;15.50;;;8.50;;
24279;SDS011;12395;42.808;23.408;2023-04-06T10:52:41;14.18;;;8.55;;
24279;SDS011;12395;42.808;23.408;2023-04-06T10:55:08;14.52;;;8.48;;
24279;SDS011;12395;42.808;23.408;2023-04-06T10:57:37;13.55;;;7.65;;
24279;SDS011;12395;42.808;23.408;2023-04-06T11:00:04;13.95;;;8.02;;
24279;SDS011;12395;42.808;23.408;2023-04-06T11:02:30;12.77;;;7.60;;
24279;SDS011;12395;42.808;23.408;2023-04-06T11:04:56;13.73;;;7.63;;
24279;SDS011;12395;42.808;23.408;2023-04-06T11:07:24;12.80;;;8.10;;
24279;SDS011;12395;42.808;23.408;2023-04-06T11:09:54;12.10;;;7.90;;
24279;SDS011;12395;42.808;23.408;2023-04-06T11:12:23;12.65;;;7.05;;
24279;SDS011;12395;42.808;23.408;2023-04-06T11:14:56;11.32;;;6.97;;
24279;SDS011;12395;42.808;23.408;2023-04-06T11:17:33;12.15;;;7.22;;
24279;SDS011;12395;42.808;23.408;2023-04-06T11:19:59;10.82;;;7.13;;
24279;SDS011;12395;42.808;23.408;2023-04-06T11:22:25;11.82;;;6.85;;
24279;SDS011;12395;42.808;23.408;2023-04-06T11:24:51;11.02;;;6.38;;
24279;SDS011;12395;42.808;23.408;2023-04-06T11:27:17;11.68;;;7.28;;
24279;SDS011;12395;42.808;23.408;2023-04-06T11:29:44;12.85;;;7.25;;
24279;SDS011;12395;42.808;23.408;2023-04-06T11:32:20;15.93;;;7.93;;
24279;SDS011;12395;42.808;23.408;2023-04-06T11:34:46;13.30;;;7.90;;
24279;SDS011;12395;42.808;23.408;2023-04-06T11:37:12;13.15;;;7.57;;
24279;SDS011;12395;42.808;23.408;2023-04-06T11:39:38;12.45;;;7.40;;
24279;SDS011;12395;42.808;23.408;2023-04-06T11:42:05;12.15;;;7.20;;
24279;SDS011;12395;42.808;23.408;2023-04-06T11:44:32;14.90;;;8.18;;
24279;SDS011;12395;42.808;23.408;2023-04-06T11:47:05;12.70;;;7.47;;
24279;SDS011;12395;42.808;23.408;2023-04-06T11:49:33;11.10;;;6.78;;
24279;SDS011;12395;42.808;23.408;2023-04-06T11:52:01;11.85;;;6.88;;
24279;SDS011;12395;42.808;23.408;2023-04-06T11:54:34;12.27;;;7.28;;
24279;SDS011;12395;42.808;23.408;2023-04-06T11:57:05;13.38;;;7.47;;
24279;SDS011;12395;42.808;23.408;2023-04-06T11:59:34;12.85;;;7.45;;
24279;SDS011;12395;42.808;23.408;2023-04-06T12:02:03;9.98;;;6.05;;
24279;SDS011;12395;42.808;23.408;2023-04-06T12:04:29;11.15;;;6.55;;
24279;SDS011;12395;42.808;23.408;2023-04-06T12:06:55;12.77;;;7.20;;
24279;SDS011;12395;42.808;23.408;2023-04-06T12:09:21;11.05;;;6.65;;
24279;SDS011;12395;42.808;23.408;2023-04-06T12:11:46;11.30;;;7.20;;
24279;SDS011;12395;42.808;23.408;2023-04-06T12:14:12;11.57;;;7.03;;
24279;SDS011;12395;42.808;23.408;2023-04-06T12:16:38;11.02;;;7.10;;
24279;SDS011;12395;42.808;23.408;2023-04-06T12:19:03;12.20;;;7.00;;
24279;SDS011;12395;42.808;23.408;2023-04-06T12:21:30;10.45;;;6.18;;
24279;SDS011;12395;42.808;23.408;2023-04-06T12:23:59;12.15;;;6.82;;
24279;SDS011;12395;42.808;23.408;2023-04-06T12:26:29;10.93;;;6.45;;
24279;SDS011;12395;42.808;23.408;2023-04-06T12:28:55;11.93;;;7.15;;
24279;SDS011;12395;42.808;23.408;2023-04-06T12:31:21;10.90;;;6.35;;
24279;SDS011;12395;42.808;23.408;2023-04-06T12:33:48;10.13;;;6.30;;
24279;SDS011;12395;42.808;23.408;2023-04-06T12:36:15;10.27;;;6.40;;
24279;SDS011;12395;42.808;23.408;2023-04-06T12:38:49;10.65;;;6.10;;
24279;SDS011;12395;42.808;23.408;2023-04-06T12:41:16;9.50;;;6.22;;
24279;SDS011;12395;42.808;23.408;2023-04-06T12:43:42;10.55;;;6.13;;
24279;SDS011;12395;42.808;23.408;2023-04-06T12:46:09;10.50;;;6.15;;
24279;SDS011;12395;42.808;23.408;2023-04-06T12:48:35;11.55;;;6.88;;
24279;SDS011;12395;42.808;23.408;2023-04-06T12:51:02;11.40;;;7.10;;
24279;SDS011;12395;42.808;23.408;2023-04-06T12:53:28;9.57;;;5.88;;
24279;SDS011;12395;42.808;23.408;2023-04-06T12:55:55;9.52;;;5.85;;
24279;SDS011;12395;42.808;23.408;2023-04-06T12:58:21;11.95;;;6.45;;
24279;SDS011;12395;42.808;23.408;2023-04-06T13:00:48;10.48;;;6.45;;
24279;SDS011;12395;42.808;23.408;2023-04-06T13:03:14;10.77;;;6.35;;
24279;SDS011;12395;42.808;23.408;2023-04-06T13:05:45;12.50;;;6.07;;
24279;SDS011;12395;42.808;23.408;2023-04-06T13:08:12;12.13;;;6.60;;
24279;SDS011;12395;42.808;23.408;2023-04-06T13:10:38;11.80;;;6.32;;
24279;SDS011;12395;42.808;23.408;2023-04-06T13:13:08;12.20;;;6.60;;
24279;SDS011;12395;42.808;23.408;2023-04-06T13:15:34;10.07;;;6.03;;
24279;SDS011;12395;42.808;23.408;2023-04-06T13:18:01;9.70;;;6.00;;
24279;SDS011;12395;42.808;23.408;2023-04-06T13:20:27;10.88;;;5.82;;
24279;SDS011;12395;42.808;23.408;2023-04-06T13:22:52;10.35;;;6.05;;
24279;SDS011;12395;42.808;23.408;2023-04-06T13:25:18;12.15;;;7.07;;
24279;SDS011;12395;42.808;23.408;2023-04-06T13:27:43;10.07;;;5.93;;
24279;SDS011;12395;42.808;23.408;2023-04-06T13:30:11;12.25;;;6.20;;
24279;SDS011;12395;42.808;23.408;2023-04-06T13:32:38;9.10;;;6.30;;
24279;SDS011;12395;42.808;23.408;2023-04-06T13:35:03;10.27;;;6.20;;
24279;SDS011;12395;42.808;23.408;2023-04-06T13:37:29;11.50;;;6.45;;
24279;SDS011;12395;42.808;23.408;2023-04-06T13:39:55;11.10;;;6.22;;
24279;SDS011;12395;42.808;23.408;2023-04-06T13:42:20;12.52;;;6.65;;
24279;SDS011;12395;42.808;23.408;2023-04-06T13:44:46;11.23;;;6.15;;
24279;SDS011;12395;42.808;23.408;2023-04-06T13:47:12;10.48;;;6.22;;
24279;SDS011;12395;42.808;23.408;2023-04-06T13:49:38;12.70;;;6.80;;
24279;SDS011;12395;42.808;23.408;2023-04-06T13:52:03;16.00;;;9.55;;
24279;SDS011;12395;42.808;23.408;2023-04-06T13:54:29;15.20;;;9.52;;
24279;SDS011;12395;42.808;23.408;2023-04-06T13:56:54;17.75;;;13.88;;
24279;SDS011;12395;42.808;23.408;2023-04-06T13:59:20;11.18;;;7.07;;
24279;SDS011;12395;42.808;23.408;2023-04-06T14:01:45;11.77;;;6.60;;
24279;SDS011;12395;42.808;23.408;2023-04-06T14:04:11;13.75;;;7.32;;
24279;SDS011;12395;42.808;23.408;2023-04-06T14:06:36;12.70;;;6.80;;
24279;SDS011;12395;42.808;23.408;2023-04-06T14:09:02;12.93;;;7.82;;
24279;SDS011;12395;42.808;23.408;2023-04-06T14:11:27;12.45;;;6.90;;
24279;SDS011;12395;42.808;23.408;2023-04-06T14:13:53;11.57;;;7.80;;